KADW

Joint Base Andrews

Airport
ICAO code
KADW
IATA Code
ADW
Summary
ICAO Region
NAM
ICAO Territory
Location

Camp Springs, Maryland

Serving
Washington DC
Elevation
280 ft
Coordinates
38° 47' 47" N , 76° 53' 1" W
KCC
Airport LOS
Parallel Runway Operation
Airport WX
Cumulonimbus
Metar
KADW 221555Z AUTO 18011KT 10SM FEW150 FEW190 08/01 A2996 RMK AO2 SLP154 T00810008

Joint Base Andrews is a United States military facility located in Prince George's County, Maryland, 6 nm southeast of Washington, DC, USA. Joint Base Andrews was established in 2009 as a merger of Andrews Air Force Base and Naval Air Facility Washington.

Airport map

Aerial View

SKYbrary Partners:

Safety knowledge contributed by: